createdAt,value
2023-01-22T00:01:46.583Z,0.40
2023-01-22T00:06:04.150Z,0.50
2023-01-22T00:10:21.218Z,0.50
2023-01-22T00:14:38.496Z,0.50
2023-01-22T00:18:55.605Z,0.50
2023-01-22T00:23:12.667Z,0.40
2023-01-22T00:27:29.759Z,0.50
2023-01-22T00:31:46.918Z,0.50
2023-01-22T00:36:09.686Z,0.40
2023-01-22T00:40:26.883Z,0.50
2023-01-22T00:44:44.016Z,0.40
2023-01-22T00:49:03.501Z,0.50
2023-01-22T00:53:20.646Z,0.50
2023-01-22T00:57:37.707Z,0.40
2023-01-22T01:01:54.837Z,0.40
2023-01-22T01:06:20.142Z,0.40
2023-01-22T01:10:37.252Z,0.40
2023-01-22T01:14:56.360Z,0.50
2023-01-22T01:19:13.484Z,0.40
2023-01-22T01:23:30.998Z,0.40
2023-01-22T01:27:48.195Z,0.40
2023-01-22T01:32:05.314Z,0.50
2023-01-22T01:36:46.797Z,0.50
2023-01-22T01:41:01.829Z,0.50
2023-01-22T01:45:32.141Z,0.50
2023-01-22T01:49:52.642Z,0.50
2023-01-22T01:54:11.402Z,0.60
2023-01-22T01:58:31.848Z,0.60
2023-01-22T02:02:49.226Z,0.60
2023-01-22T02:07:06.791Z,0.50
2023-01-22T02:11:24.849Z,0.50
2023-01-22T02:15:42.803Z,0.50
2023-01-22T02:19:59.838Z,0.50
2023-01-22T02:24:17.260Z,0.50
2023-01-22T02:28:34.340Z,0.50
2023-01-22T02:32:51.531Z,0.50
2023-01-22T02:37:09.128Z,0.50
2023-01-22T02:41:27.083Z,0.50
2023-01-22T02:45:44.268Z,0.50
2023-01-22T02:50:01.605Z,0.50
2023-01-22T02:54:18.789Z,0.60
2023-01-22T02:58:36.250Z,0.50
2023-01-22T03:02:53.324Z,0.60
2023-01-22T03:07:10.392Z,0.50
2023-01-22T03:11:30.263Z,0.50
2023-01-22T03:16:06.283Z,0.60
2023-01-22T03:20:42.207Z,0.60
2023-01-22T03:25:01.257Z,0.70
2023-01-22T03:29:18.432Z,0.60
2023-01-22T03:33:36.437Z,0.60
2023-01-22T03:37:53.558Z,0.60
2023-01-22T03:42:10.613Z,0.60
2023-01-22T03:46:28.075Z,0.60
2023-01-22T03:50:45.135Z,0.60
2023-01-22T03:55:02.235Z,0.60
2023-01-22T03:59:19.381Z,0.60
2023-01-22T04:03:37.108Z,0.60
2023-01-22T04:07:54.163Z,0.60
2023-01-22T04:12:11.233Z,0.70
2023-01-22T04:16:28.438Z,0.70
2023-01-22T04:20:47.615Z,0.70
2023-01-22T04:25:05.095Z,0.70
2023-01-22T04:29:22.158Z,0.60
2023-01-22T04:33:39.326Z,0.60
2023-01-22T04:37:56.910Z,0.50
2023-01-22T04:42:14.026Z,0.50
2023-01-22T04:46:31.588Z,0.50
2023-01-22T04:50:48.732Z,0.50
2023-01-22T04:55:06.564Z,0.50
2023-01-22T04:59:23.651Z,0.50
2023-01-22T05:03:40.804Z,0.50
2023-01-22T05:07:58.046Z,0.60
2023-01-22T05:12:15.256Z,0.60
2023-01-22T05:16:32.481Z,0.50
2023-01-22T05:20:49.578Z,0.50
2023-01-22T05:25:07.165Z,0.50
2023-01-22T05:29:26.052Z,0.50
2023-01-22T05:33:44.253Z,0.50
2023-01-22T05:38:01.289Z,0.60
2023-01-22T05:42:18.321Z,0.60
2023-01-22T05:46:35.522Z,0.60
2023-01-22T05:50:52.702Z,0.60
2023-01-22T05:55:09.926Z,0.60
2023-01-22T05:59:27.154Z,0.60
2023-01-22T06:03:44.577Z,0.60
2023-01-22T06:08:01.733Z,0.60
2023-01-22T06:12:18.799Z,0.60
2023-01-22T06:16:35.889Z,0.60
2023-01-22T06:20:57.583Z,0.60
2023-01-22T06:25:14.694Z,0.60
2023-01-22T06:29:31.966Z,0.50
2023-01-22T06:33:49.080Z,0.50
2023-01-22T06:38:06.314Z,0.60
2023-01-22T06:42:23.439Z,0.60
2023-01-22T06:46:40.645Z,0.50
2023-01-22T06:50:59.001Z,0.60
2023-01-22T06:55:16.075Z,0.70
2023-01-22T06:59:33.200Z,0.60
2023-01-22T07:03:50.396Z,0.70
2023-01-22T07:08:13.107Z,0.70
2023-01-22T07:12:30.271Z,0.70
2023-01-22T07:16:47.324Z,0.60
2023-01-22T07:21:05.856Z,0.70
2023-01-22T07:25:22.937Z,0.70
2023-01-22T07:29:40.850Z,0.60
2023-01-22T07:34:00.798Z,0.70
2023-01-22T07:38:47.576Z,0.60
2023-01-22T07:43:19.951Z,0.60
2023-01-22T07:47:41.432Z,0.70
2023-01-22T07:52:05.009Z,0.80
2023-01-22T07:56:54.395Z,0.80
2023-01-22T08:01:13.802Z,0.80
2023-01-22T08:05:30.928Z,0.90
2023-01-22T08:09:48.080Z,1.00
2023-01-22T08:14:05.142Z,1.10
2023-01-22T08:18:28.261Z,1.10
2023-01-22T08:22:48.809Z,1.10
2023-01-22T08:27:05.840Z,0.90
2023-01-22T08:31:28.388Z,1.10
2023-01-22T08:35:45.744Z,1.20
2023-01-22T08:40:04.344Z,1.20
2023-01-22T08:44:21.423Z,1.10
2023-01-22T08:48:39.670Z,1.10
2023-01-22T08:52:57.620Z,1.20
2023-01-22T08:57:14.636Z,1.10
2023-01-22T09:01:32.473Z,1.20
2023-01-22T09:05:51.004Z,1.20
2023-01-22T09:10:12.177Z,1.10
2023-01-22T09:14:29.516Z,1.10
2023-01-22T09:18:46.585Z,1.20
2023-01-22T09:23:03.634Z,1.30
2023-01-22T09:27:20.720Z,1.20
2023-01-22T09:31:37.872Z,1.40
2023-01-22T09:35:54.953Z,1.40
2023-01-22T09:40:36.345Z,1.40
2023-01-22T09:44:59.721Z,1.30
2023-01-22T09:49:19.957Z,1.20
2023-01-22T09:53:37.080Z,1.20
2023-01-22T09:57:55.970Z,1.40
2023-01-22T10:02:36.404Z,1.40
2023-01-22T10:06:57.711Z,1.40
2023-01-22T10:11:14.811Z,1.40
2023-01-22T10:15:32.915Z,1.50
2023-01-22T10:19:58.488Z,1.50
2023-01-22T10:24:15.678Z,1.50
2023-01-22T10:28:32.860Z,1.60
2023-01-22T10:33:04.269Z,1.50
2023-01-22T10:37:21.353Z,1.40
2023-01-22T10:41:39.307Z,1.50
2023-01-22T10:46:03.265Z,1.50
2023-01-22T10:50:24.311Z,1.50
2023-01-22T10:54:43.954Z,1.70
2023-01-22T10:59:26.662Z,1.30
2023-01-22T11:03:44.293Z,1.30
2023-01-22T11:08:07.654Z,1.40
2023-01-22T11:12:33.166Z,1.40
2023-01-22T11:16:54.277Z,1.30
2023-01-22T11:21:26.850Z,1.50
2023-01-22T11:26:41.552Z,1.60
2023-01-22T11:31:13.873Z,1.70
2023-01-22T11:35:50.866Z,1.50
2023-01-22T11:40:21.955Z,1.60
2023-01-22T11:45:09.053Z,1.60
2023-01-22T11:49:52.904Z,1.60
2023-01-22T11:54:33.112Z,1.60
2023-01-22T11:59:32.721Z,1.70
2023-01-22T12:04:15.902Z,1.60
2023-01-22T12:08:47.762Z,1.70
2023-01-22T12:13:38.327Z,1.60
2023-01-22T12:17:58.491Z,1.60
2023-01-22T12:22:37.449Z,1.60
2023-01-22T12:27:05.397Z,1.70
2023-01-22T12:31:53.895Z,1.60
2023-01-22T12:36:16.454Z,1.50
2023-01-22T12:40:52.601Z,1.40
2023-01-22T12:45:31.805Z,1.60
2023-01-22T12:49:51.514Z,1.40
2023-01-22T12:54:27.341Z,1.40
2023-01-22T12:58:55.454Z,1.50
2023-01-22T13:03:32.871Z,1.50
2023-01-22T13:08:16.311Z,1.40
2023-01-22T13:12:45.384Z,1.30
2023-01-22T13:17:16.764Z,1.20
2023-01-22T13:21:34.365Z,1.40
2023-01-22T13:25:55.905Z,1.30
2023-01-22T13:30:17.969Z,1.40
2023-01-22T13:34:35.292Z,1.40
2023-01-22T13:38:54.903Z,1.40
2023-01-22T13:43:18.233Z,1.30
2023-01-22T13:47:36.011Z,1.40
2023-01-22T13:51:54.145Z,1.30
2023-01-22T13:56:18.537Z,1.20
2023-01-22T14:00:36.645Z,1.20
2023-01-22T14:04:53.841Z,1.20
2023-01-22T14:09:11.115Z,1.10
2023-01-22T14:13:39.891Z,1.10
2023-01-22T14:18:16.111Z,1.20
2023-01-22T14:22:33.227Z,1.30
2023-01-22T14:26:50.325Z,1.30
2023-01-22T14:31:07.601Z,1.40
2023-01-22T14:35:26.579Z,1.40
2023-01-22T14:39:43.718Z,1.50
2023-01-22T14:44:04.006Z,1.40
2023-01-22T14:48:21.343Z,1.50
2023-01-22T14:52:38.468Z,1.40
2023-01-22T14:56:56.451Z,1.30
2023-01-22T15:01:15.996Z,1.40
2023-01-22T15:05:35.486Z,1.30
2023-01-22T15:09:52.835Z,1.30
2023-01-22T15:14:10.191Z,1.20
2023-01-22T15:18:28.334Z,1.10
2023-01-22T15:22:45.727Z,1.20
2023-01-22T15:27:02.978Z,1.20
2023-01-22T15:31:20.258Z,1.10
2023-01-22T15:35:37.432Z,1.10
2023-01-22T15:39:54.527Z,1.00
2023-01-22T15:44:13.467Z,0.90
2023-01-22T15:48:30.607Z,0.90
2023-01-22T15:52:47.812Z,0.90
2023-01-22T15:57:04.880Z,0.90
2023-01-22T16:01:22.441Z,0.90
2023-01-22T16:05:39.570Z,0.90
2023-01-22T16:09:56.668Z,0.90
2023-01-22T16:14:13.789Z,0.90
2023-01-22T16:18:35.296Z,0.90
2023-01-22T16:22:52.787Z,0.80
2023-01-22T16:27:09.989Z,0.80
2023-01-22T16:31:30.527Z,0.80
2023-01-22T16:35:47.933Z,0.90
2023-01-22T16:40:07.463Z,0.90
2023-01-22T16:44:26.419Z,0.90
2023-01-22T16:48:44.109Z,0.80
2023-01-22T16:53:01.341Z,0.80
2023-01-22T16:57:20.104Z,0.80
2023-01-22T17:01:40.870Z,0.80
2023-01-22T17:05:59.362Z,0.80
2023-01-22T17:10:17.271Z,0.90
2023-01-22T17:14:36.375Z,0.90
2023-01-22T17:18:55.132Z,0.90
2023-01-22T17:23:12.425Z,0.90
2023-01-22T17:27:31.583Z,0.90
2023-01-22T17:31:49.025Z,0.90
2023-01-22T17:36:06.878Z,0.80
2023-01-22T17:40:25.179Z,0.90
2023-01-22T17:44:42.219Z,0.90
2023-01-22T17:49:01.128Z,0.90
2023-01-22T17:53:18.205Z,0.90
2023-01-22T17:57:35.271Z,0.80
2023-01-22T18:01:52.415Z,0.80
2023-01-22T18:06:10.499Z,0.90
2023-01-22T18:10:28.214Z,0.90
2023-01-22T18:14:45.317Z,0.90
2023-01-22T18:19:05.412Z,0.90
2023-01-22T18:23:22.754Z,0.90
2023-01-22T18:27:39.843Z,0.90
2023-01-22T18:31:57.123Z,0.90
2023-01-22T18:36:16.969Z,0.90
2023-01-22T18:40:34.054Z,0.90
2023-01-22T18:44:51.115Z,0.90
2023-01-22T18:49:19.060Z,0.90
2023-01-22T18:53:37.393Z,0.90
2023-01-22T18:57:56.956Z,0.90
2023-01-22T19:02:17.356Z,0.90
2023-01-22T19:06:37.374Z,0.90
2023-01-22T19:10:54.503Z,0.90
2023-01-22T19:15:12.719Z,0.80
2023-01-22T19:19:29.716Z,0.90
2023-01-22T19:23:53.189Z,0.90
2023-01-22T19:28:10.286Z,0.90
2023-01-22T19:32:28.630Z,0.90
2023-01-22T19:36:45.685Z,0.90
2023-01-22T19:41:03.749Z,0.80
2023-01-22T19:45:21.129Z,0.90
2023-01-22T19:49:38.387Z,0.90
2023-01-22T19:53:55.437Z,0.90
2023-01-22T19:58:12.492Z,0.90
2023-01-22T20:02:29.587Z,0.80
2023-01-22T20:06:50.839Z,0.90
2023-01-22T20:11:09.976Z,0.90
2023-01-22T20:15:27.044Z,0.90
2023-01-22T20:19:44.179Z,0.90
2023-01-22T20:24:01.326Z,0.90
2023-01-22T20:28:19.528Z,0.90
2023-01-22T20:32:36.541Z,0.90
2023-01-22T20:36:53.563Z,0.80
2023-01-22T20:41:10.923Z,0.90
2023-01-22T20:45:28.055Z,0.90
2023-01-22T20:49:45.220Z,1.00
2023-01-22T20:54:02.949Z,1.00
2023-01-22T20:58:20.089Z,0.90
2023-01-22T21:02:37.197Z,0.80
2023-01-22T21:06:54.439Z,0.90
2023-01-22T21:11:14.004Z,0.90
2023-01-22T21:15:33.479Z,0.90
2023-01-22T21:19:51.615Z,0.90
2023-01-22T21:24:08.770Z,0.90
2023-01-22T21:28:25.870Z,0.90
2023-01-22T21:32:43.145Z,0.90
2023-01-22T21:37:00.299Z,1.00
2023-01-22T21:41:18.554Z,0.90
2023-01-22T21:45:57.410Z,1.00
2023-01-22T21:50:14.507Z,0.90
2023-01-22T21:54:37.253Z,1.00
2023-01-22T21:58:55.963Z,1.00
2023-01-22T22:03:13.030Z,1.00
2023-01-22T22:07:30.145Z,1.00
2023-01-22T22:11:47.677Z,1.00
2023-01-22T22:16:07.272Z,1.00
2023-01-22T22:20:24.366Z,1.00
2023-01-22T22:24:42.762Z,1.00
2023-01-22T22:28:59.979Z,1.00
2023-01-22T22:33:17.584Z,1.00
2023-01-22T22:37:34.884Z,1.00
2023-01-22T22:41:51.948Z,1.00
2023-01-22T22:46:15.441Z,1.00
2023-01-22T22:50:32.700Z,1.00
2023-01-22T22:54:49.839Z,1.00
2023-01-22T22:59:07.107Z,1.00
2023-01-22T23:03:24.792Z,1.00
2023-01-22T23:07:42.346Z,1.00
2023-01-22T23:11:59.476Z,1.00
2023-01-22T23:16:19.817Z,1.00
2023-01-22T23:20:37.011Z,1.00
2023-01-22T23:24:54.155Z,0.90
2023-01-22T23:29:13.653Z,1.00
2023-01-22T23:33:30.946Z,1.00
2023-01-22T23:37:48.335Z,1.00
2023-01-22T23:42:05.434Z,0.90
2023-01-22T23:46:25.356Z,1.00
2023-01-22T23:50:46.039Z,1.00
2023-01-22T23:55:03.675Z,1.10
2023-01-22T23:59:23.401Z,1.00
